Time;durP1;ratioP1;P1;durP2;ratioP2;P2;SDS_P1;SDS_P2;PMS_P1;PMS_P2;Temp;Humidity;BMP_temperature;BMP_pressure;BME280_temperature;BME280_humidity;BME280_pressure;Samples;Min_cycle;Max_cycle;Signal;HPM_P1;HPM_P2
2022/08/05 00:02:04;;;;;;;8.55;6.70;;;;;;;;;;5091428;28;20082;-78
2022/08/05 00:04:30;;;;;;;7.45;6.85;;;;;;;;;;5089964;28;20077;-78
2022/08/05 00:06:56;;;;;;;7.38;6.68;;;;;;;;;;5093471;28;20562;-78
2022/08/05 00:09:22;;;;;;;7.95;7.30;;;;;;;;;;5092331;28;20040;-78
2022/08/05 00:11:49;;;;;;;7.85;7.18;;;;;;;;;;5093964;28;20047;-78
2022/08/05 00:14:15;;;;;;;8.18;7.38;;;;;;;;;;5093188;28;20106;-78
2022/08/05 00:16:41;;;;;;;7.72;7.13;;;;;;;;;;5097927;28;20055;-77
2022/08/05 00:19:07;;;;;;;7.47;6.78;;;;;;;;;;5097142;28;20032;-80
2022/08/05 00:21:34;;;;;;;8.50;7.70;;;;;;;;;;5096246;28;20427;-79
2022/08/05 00:24:00;;;;;;;8.38;7.47;;;;;;;;;;5097439;28;20135;-79
2022/08/05 00:26:26;;;;;;;7.78;7.07;;;;;;;;;;5096210;28;20108;-79
2022/08/05 00:28:54;;;;;;;7.78;7.07;;;;;;;;;;5097381;28;20028;-79
2022/08/05 00:31:21;;;;;;;8.98;7.47;;;;;;;;;;5096108;28;20039;-79
2022/08/05 00:33:49;;;;;;;8.40;7.60;;;;;;;;;;5095737;28;20067;-79
2022/08/05 00:36:15;;;;;;;8.98;7.93;;;;;;;;;;5097192;28;20057;-79
2022/08/05 00:38:43;;;;;;;8.50;7.57;;;;;;;;;;5096320;28;20043;-79
2022/08/05 00:41:09;;;;;;;8.60;7.80;;;;;;;;;;5096196;28;20059;-80
2022/08/05 00:43:35;;;;;;;7.70;7.00;;;;;;;;;;5098109;28;20509;-80
2022/08/05 00:46:04;;;;;;;8.40;7.65;;;;;;;;;;5096442;28;20047;-79
2022/08/05 00:48:30;;;;;;;8.25;7.50;;;;;;;;;;5097760;28;20075;-79
2022/08/05 00:50:56;;;;;;;8.10;7.40;;;;;;;;;;5096190;28;20582;-79
2022/08/05 00:53:23;;;;;;;8.18;7.47;;;;;;;;;;5096067;28;20032;-79
2022/08/05 00:55:49;;;;;;;9.98;7.40;;;;;;;;;;5095550;28;20130;-79
2022/08/05 00:58:15;;;;;;;9.13;7.65;;;;;;;;;;5096488;28;20519;-79
2022/08/05 01:00:42;;;;;;;9.93;7.70;;;;;;;;;;5096386;28;20038;-79
2022/08/05 01:03:09;;;;;;;8.90;8.10;;;;;;;;;;5097488;28;20040;-79
2022/08/05 01:05:35;;;;;;;9.07;8.20;;;;;;;;;;5097429;28;20104;-79
2022/08/05 01:08:02;;;;;;;9.02;8.23;;;;;;;;;;5097239;28;20040;-79
2022/08/05 01:10:30;;;;;;;8.15;7.35;;;;;;;;;;5096775;28;20471;-79
2022/08/05 01:12:59;;;;;;;8.85;7.50;;;;;;;;;;5095122;28;20039;-79
2022/08/05 01:15:29;;;;;;;10.90;7.95;;;;;;;;;;5095832;28;20063;-79
2022/08/05 01:17:57;;;;;;;9.05;7.55;;;;;;;;;;5096325;28;20032;-79
2022/08/05 01:20:26;;;;;;;8.35;7.57;;;;;;;;;;5095620;28;20043;-79
2022/08/05 01:22:58;;;;;;;8.07;7.35;;;;;;;;;;5096667;28;20036;-79
2022/08/05 01:25:33;;;;;;;8.23;7.38;;;;;;;;;;5094841;28;20122;-79
2022/08/05 01:28:15;;;;;;;8.07;7.28;;;;;;;;;;5095297;28;20089;-79
2022/08/05 01:30:45;;;;;;;8.30;7.50;;;;;;;;;;5095263;28;20140;-79
2022/08/05 01:33:15;;;;;;;8.85;7.85;;;;;;;;;;5095500;28;20047;-79
2022/08/05 01:35:42;;;;;;;9.25;8.35;;;;;;;;;;5095295;28;20074;-79
2022/08/05 01:38:09;;;;;;;8.15;7.43;;;;;;;;;;5096782;28;20057;-79
2022/08/05 01:40:36;;;;;;;7.95;7.20;;;;;;;;;;5094620;28;20054;-79
2022/08/05 01:43:03;;;;;;;8.75;7.72;;;;;;;;;;5094945;28;20046;-79
2022/08/05 01:45:32;;;;;;;9.93;7.45;;;;;;;;;;5096077;28;20074;-79
2022/08/05 01:48:02;;;;;;;8.52;7.57;;;;;;;;;;5095935;28;20120;-79
2022/08/05 01:50:35;;;;;;;8.48;7.70;;;;;;;;;;5096356;28;20089;-79
2022/08/05 01:53:09;;;;;;;9.02;7.93;;;;;;;;;;5094725;28;20047;-79
2022/08/05 01:55:36;;;;;;;8.88;8.07;;;;;;;;;;5094077;28;20032;-79
2022/08/05 01:58:10;;;;;;;9.15;7.85;;;;;;;;;;5094841;28;20036;-79
2022/08/05 02:00:37;;;;;;;8.60;7.80;;;;;;;;;;5095164;28;20032;-79
2022/08/05 02:03:12;;;;;;;8.32;7.50;;;;;;;;;;5095905;28;20048;-79
2022/08/05 02:05:39;;;;;;;8.77;7.88;;;;;;;;;;5094628;28;20032;-79
2022/08/05 02:08:08;;;;;;;8.07;7.38;;;;;;;;;;5096168;28;20044;-79
2022/08/05 02:10:39;;;;;;;8.20;7.35;;;;;;;;;;5094301;28;20109;-79
2022/08/05 02:13:14;;;;;;;8.75;7.63;;;;;;;;;;5095572;28;20048;-79
2022/08/05 02:15:43;;;;;;;9.23;8.27;;;;;;;;;;5094745;28;20067;-79
2022/08/05 02:18:09;;;;;;;8.80;8.00;;;;;;;;;;5095944;28;20040;-79
2022/08/05 02:21:01;;;;;;;8.70;7.90;;;;;;;;;;5095381;28;20040;-79
2022/08/05 02:23:30;;;;;;;9.60;8.55;;;;;;;;;;5077103;28;20055;-79
2022/08/05 02:25:58;;;;;;;8.95;8.05;;;;;;;;;;5095930;28;20036;-79
2022/08/05 02:28:26;;;;;;;9.50;8.50;;;;;;;;;;5095292;28;20058;-79
2022/08/05 02:30:57;;;;;;;10.27;8.18;;;;;;;;;;5094466;28;20032;-79
2022/08/05 02:33:25;;;;;;;9.23;8.30;;;;;;;;;;5095408;28;20039;-79
2022/08/05 02:35:53;;;;;;;8.85;8.05;;;;;;;;;;5096085;28;20089;-79
2022/08/05 02:38:19;;;;;;;8.73;7.65;;;;;;;;;;5094874;28;20452;-79
2022/08/05 02:40:45;;;;;;;9.07;8.18;;;;;;;;;;5095089;28;20055;-80
2022/08/05 02:43:12;;;;;;;11.52;8.45;;;;;;;;;;5093356;28;20171;-79
2022/08/05 02:45:40;;;;;;;9.38;8.52;;;;;;;;;;5093850;28;20118;-79
2022/08/05 02:48:06;;;;;;;8.50;7.80;;;;;;;;;;5093758;28;20042;-79
2022/08/05 02:50:33;;;;;;;9.75;8.45;;;;;;;;;;5075049;28;20036;-79
2022/08/05 02:52:59;;;;;;;10.75;8.45;;;;;;;;;;5093271;28;20044;-79
2022/08/05 02:55:26;;;;;;;9.02;8.13;;;;;;;;;;5094420;28;20040;-79
2022/08/05 02:57:52;;;;;;;9.63;8.60;;;;;;;;;;5094425;28;20035;-79
2022/08/05 03:00:18;;;;;;;10.77;8.52;;;;;;;;;;5093610;28;20059;-79
2022/08/05 03:02:47;;;;;;;8.98;8.07;;;;;;;;;;5094313;28;20048;-79
2022/08/05 03:05:14;;;;;;;9.68;8.75;;;;;;;;;;5094417;28;20063;-79
2022/08/05 03:07:41;;;;;;;9.55;8.45;;;;;;;;;;5093334;28;20043;-79
2022/08/05 03:10:07;;;;;;;10.38;8.88;;;;;;;;;;5093253;28;20063;-79
2022/08/05 03:12:35;;;;;;;9.75;8.77;;;;;;;;;;5094416;28;20036;-79
2022/08/05 03:15:01;;;;;;;10.75;9.13;;;;;;;;;;5090276;28;20033;-79
2022/08/05 03:17:27;;;;;;;10.95;8.70;;;;;;;;;;5092957;28;20039;-79
2022/08/05 03:19:53;;;;;;;11.90;9.32;;;;;;;;;;5094174;28;20043;-79
2022/08/05 03:22:20;;;;;;;9.93;9.02;;;;;;;;;;5080007;28;20134;-79
2022/08/05 03:24:47;;;;;;;9.52;8.63;;;;;;;;;;5093538;28;20031;-79
2022/08/05 03:27:13;;;;;;;10.15;9.15;;;;;;;;;;5094969;28;20046;-79
2022/08/05 03:29:40;;;;;;;9.95;8.85;;;;;;;;;;5094423;28;20084;-79
2022/08/05 03:32:09;;;;;;;11.98;9.20;;;;;;;;;;5094225;28;20081;-79
2022/08/05 03:34:35;;;;;;;9.85;8.57;;;;;;;;;;5094628;28;20040;-79
2022/08/05 03:37:02;;;;;;;10.00;9.13;;;;;;;;;;5093583;28;20123;-79
2022/08/05 03:39:29;;;;;;;10.23;8.30;;;;;;;;;;5092816;28;20028;-79
2022/08/05 03:41:55;;;;;;;10.23;8.90;;;;;;;;;;5093550;28;20105;-79
2022/08/05 03:44:21;;;;;;;11.00;8.93;;;;;;;;;;5092952;28;20040;-79
2022/08/05 03:46:48;;;;;;;11.18;8.30;;;;;;;;;;5093914;28;20040;-79
2022/08/05 03:49:14;;;;;;;9.98;8.38;;;;;;;;;;5093518;28;20494;-79
2022/08/05 03:51:48;;;;;;;10.40;9.40;;;;;;;;;;5092869;28;20529;-79
2022/08/05 03:54:18;;;;;;;9.55;8.50;;;;;;;;;;5092416;28;20067;-79
2022/08/05 03:56:45;;;;;;;9.27;8.47;;;;;;;;;;5093976;28;20066;-79
2022/08/05 03:59:21;;;;;;;9.57;8.63;;;;;;;;;;5094007;28;20042;-79
2022/08/05 04:01:48;;;;;;;9.05;8.25;;;;;;;;;;5093075;28;20043;-79
2022/08/05 04:04:19;;;;;;;10.50;8.95;;;;;;;;;;5092426;28;20135;-79
2022/08/05 04:06:45;;;;;;;14.48;9.02;;;;;;;;;;5093214;28;20040;-79
2022/08/05 04:09:12;;;;;;;9.82;8.70;;;;;;;;;;5092690;28;20040;-79
2022/08/05 04:11:38;;;;;;;9.30;8.40;;;;;;;;;;5093204;28;20032;-79
2022/08/05 04:14:05;;;;;;;10.18;8.40;;;;;;;;;;5092882;28;20047;-79
2022/08/05 04:16:32;;;;;;;10.50;8.40;;;;;;;;;;5091945;28;20035;-79
2022/08/05 04:18:58;;;;;;;9.73;8.73;;;;;;;;;;5093824;28;20046;-79
2022/08/05 04:21:24;;;;;;;10.80;8.77;;;;;;;;;;5093108;28;20043;-79
2022/08/05 04:23:50;;;;;;;11.68;8.40;;;;;;;;;;5093352;28;20418;-79
2022/08/05 04:26:17;;;;;;;11.13;8.90;;;;;;;;;;5093591;28;20045;-79
2022/08/05 04:28:43;;;;;;;10.05;8.40;;;;;;;;;;5092871;28;20032;-79
2022/08/05 04:31:09;;;;;;;10.98;7.88;;;;;;;;;;5092618;28;20032;-79
2022/08/05 04:33:35;;;;;;;11.50;8.10;;;;;;;;;;5093907;28;20054;-79
2022/08/05 04:36:01;;;;;;;12.05;7.50;;;;;;;;;;5093773;28;20066;-79
2022/08/05 04:38:27;;;;;;;9.57;7.18;;;;;;;;;;5092655;28;20114;-79
2022/08/05 04:40:56;;;;;;;8.45;7.15;;;;;;;;;;5092172;28;20579;-79
2022/08/05 04:43:24;;;;;;;12.50;6.97;;;;;;;;;;5093263;28;20040;-79
2022/08/05 04:45:51;;;;;;;13.02;7.38;;;;;;;;;;5093466;28;20052;-79
2022/08/05 04:48:17;;;;;;;10.23;6.15;;;;;;;;;;5092169;28;20032;-79
2022/08/05 04:50:44;;;;;;;13.63;6.80;;;;;;;;;;5093551;28;20074;-78
2022/08/05 04:53:11;;;;;;;8.90;7.28;;;;;;;;;;5094000;28;20126;-79
2022/08/05 04:55:38;;;;;;;12.82;6.70;;;;;;;;;;5093069;28;20115;-79
2022/08/05 04:58:05;;;;;;;9.98;6.25;;;;;;;;;;5092129;28;20059;-79
2022/08/05 05:00:34;;;;;;;10.02;6.30;;;;;;;;;;5093331;28;20066;-78
2022/08/05 05:03:00;;;;;;;11.25;6.13;;;;;;;;;;5096523;28;20113;-79
2022/08/05 05:05:27;;;;;;;10.38;5.88;;;;;;;;;;5097379;28;20043;-79
2022/08/05 05:07:54;;;;;;;12.25;6.53;;;;;;;;;;5095616;28;20152;-79
2022/08/05 05:10:20;;;;;;;10.10;5.75;;;;;;;;;;5097163;28;20032;-79
2022/08/05 05:12:46;;;;;;;10.27;5.57;;;;;;;;;;5097051;28;20039;-79
2022/08/05 05:15:12;;;;;;;9.30;5.55;;;;;;;;;;5097061;28;20032;-79
2022/08/05 05:17:39;;;;;;;7.97;5.90;;;;;;;;;;5094927;28;20043;-78
2022/08/05 05:20:09;;;;;;;9.27;5.53;;;;;;;;;;5096734;28;20035;-78
2022/08/05 05:22:35;;;;;;;8.68;5.30;;;;;;;;;;5096384;28;20513;-79
2022/08/05 05:25:01;;;;;;;9.10;5.28;;;;;;;;;;5095162;28;20039;-78
2022/08/05 05:27:28;;;;;;;8.60;5.00;;;;;;;;;;5096332;28;20039;-78
2022/08/05 05:29:54;;;;;;;7.32;5.47;;;;;;;;;;5095529;28;20077;-78
2022/08/05 05:32:20;;;;;;;7.78;4.82;;;;;;;;;;5096944;28;20057;-78
2022/08/05 05:34:46;;;;;;;9.90;5.68;;;;;;;;;;5095406;28;20115;-78
2022/08/05 05:37:13;;;;;;;6.30;5.05;;;;;;;;;;5096077;28;20126;-78
2022/08/05 05:39:40;;;;;;;8.55;5.40;;;;;;;;;;5093153;28;20028;-79
2022/08/05 05:42:06;;;;;;;7.90;5.03;;;;;;;;;;5095975;28;20097;-79
2022/08/05 06:12:57;;;;;;;9.53;3.73;;;;;;;;;;5045965;28;20040;-76
2022/08/05 06:16:01;;;;;;;9.52;4.07;;;;;;;;;;5094002;28;20036;-78
2022/08/05 06:18:38;;;;;;;6.45;3.47;;;;;;;;;;5092824;28;20059;-78
2022/08/05 06:21:07;;;;;;;7.15;3.72;;;;;;;;;;5094531;28;20036;-78
2022/08/05 06:23:36;;;;;;;6.40;3.15;;;;;;;;;;5094257;28;20032;-78
2022/08/05 06:26:04;;;;;;;7.25;3.55;;;;;;;;;;5093415;28;20502;-78
2022/08/05 06:28:30;;;;;;;5.80;3.08;;;;;;;;;;5094257;28;20040;-78
2022/08/05 06:30:58;;;;;;;5.53;3.25;;;;;;;;;;5094701;28;20113;-78
2022/08/05 06:33:30;;;;;;;9.73;3.55;;;;;;;;;;5094920;28;20537;-79
2022/08/05 06:35:56;;;;;;;3.88;3.05;;;;;;;;;;5095633;28;20036;-79
2022/08/05 06:38:25;;;;;;;5.75;3.03;;;;;;;;;;5095208;28;20028;-78
2022/08/05 06:40:51;;;;;;;5.93;2.45;;;;;;;;;;5095465;28;20048;-78
2022/08/05 06:43:20;;;;;;;5.95;3.42;;;;;;;;;;5094872;28;20036;-78
2022/08/05 06:45:46;;;;;;;4.43;2.67;;;;;;;;;;5094369;28;20101;-70
2022/08/05 06:48:12;;;;;;;6.22;2.67;;;;;;;;;;5095381;28;20054;-70
2022/08/05 06:50:38;;;;;;;5.07;2.45;;;;;;;;;;5095694;28;20043;-70
2022/08/05 06:53:04;;;;;;;4.25;1.92;;;;;;;;;;5094593;28;20040;-70
2022/08/05 06:55:30;;;;;;;4.07;2.58;;;;;;;;;;5095356;28;20036;-70
2022/08/05 06:57:57;;;;;;;6.38;2.38;;;;;;;;;;5095025;28;20043;-70
2022/08/05 07:00:23;;;;;;;5.22;2.47;;;;;;;;;;5094487;28;20051;-70
2022/08/05 07:02:49;;;;;;;4.88;2.50;;;;;;;;;;5095057;28;20036;-70
2022/08/05 07:05:16;;;;;;;3.67;2.20;;;;;;;;;;5093979;28;20051;-70
2022/08/05 07:07:43;;;;;;;4.57;2.40;;;;;;;;;;5093646;28;20123;-70
2022/08/05 07:10:10;;;;;;;4.78;2.22;;;;;;;;;;5093364;28;20028;-70
2022/08/05 07:18:05;;;;;;;2.45;2.03;;;;;;;;;;5094727;28;20567;-70
2022/08/05 07:20:31;;;;;;;4.80;2.35;;;;;;;;;;5093629;28;20406;-70
2022/08/05 07:22:57;;;;;;;5.32;2.55;;;;;;;;;;5093364;28;20040;-70
2022/08/05 07:25:24;;;;;;;3.35;2.30;;;;;;;;;;5093668;28;20567;-70
2022/08/05 07:27:51;;;;;;;5.18;2.30;;;;;;;;;;5095072;28;20089;-70
2022/08/05 07:30:17;;;;;;;6.88;2.63;;;;;;;;;;5094250;28;20097;-70
2022/08/05 07:32:43;;;;;;;5.20;2.80;;;;;;;;;;5094410;28;20533;-70
2022/08/05 07:35:12;;;;;;;2.95;2.38;;;;;;;;;;5089035;28;20040;-69
2022/08/05 07:37:38;;;;;;;4.43;2.08;;;;;;;;;;5092861;28;20043;-69
2022/08/05 07:40:05;;;;;;;3.70;2.10;;;;;;;;;;5088570;28;20048;-69
2022/08/05 07:42:32;;;;;;;6.00;2.65;;;;;;;;;;5091225;28;20052;-69
2022/08/05 07:44:59;;;;;;;9.85;2.40;;;;;;;;;;5093380;28;20051;-69
2022/08/05 07:47:26;;;;;;;2.78;2.00;;;;;;;;;;5093003;28;20517;-70
2022/08/05 07:49:52;;;;;;;3.25;1.90;;;;;;;;;;5092675;28;20044;-70
2022/08/05 07:52:19;;;;;;;3.75;2.13;;;;;;;;;;5093151;28;20032;-70
2022/08/05 07:54:45;;;;;;;10.00;2.53;;;;;;;;;;5093232;28;20059;-69
2022/08/05 07:57:11;;;;;;;4.78;2.53;;;;;;;;;;5093484;28;20066;-70
2022/08/05 07:59:38;;;;;;;14.52;2.90;;;;;;;;;;5093544;28;20039;-69
2022/08/05 08:02:06;;;;;;;5.72;2.47;;;;;;;;;;5093005;28;20036;-69
2022/08/05 08:04:32;;;;;;;14.50;2.42;;;;;;;;;;5092529;28;20047;-69
2022/08/05 08:07:00;;;;;;;6.03;2.30;;;;;;;;;;5092699;28;20047;-69
2022/08/05 08:09:27;;;;;;;4.00;2.20;;;;;;;;;;5095094;28;20044;-69
2022/08/05 08:11:53;;;;;;;6.18;2.42;;;;;;;;;;5093069;28;20048;-69
2022/08/05 08:14:19;;;;;;;1.85;1.73;;;;;;;;;;5092554;28;20052;-69
2022/08/05 08:16:45;;;;;;;5.22;2.10;;;;;;;;;;5092866;28;20123;-69
2022/08/05 08:19:12;;;;;;;4.60;2.10;;;;;;;;;;5092626;28;20047;-70
2022/08/05 08:21:38;;;;;;;3.55;2.10;;;;;;;;;;5092630;28;20490;-69
2022/08/05 08:24:04;;;;;;;2.35;1.77;;;;;;;;;;5092748;28;20047;-69
2022/08/05 08:26:31;;;;;;;4.43;2.40;;;;;;;;;;5092762;28;20048;-69
2022/08/05 08:28:59;;;;;;;6.85;2.22;;;;;;;;;;5093092;28;20143;-69
2022/08/05 08:31:25;;;;;;;3.80;2.25;;;;;;;;;;5093516;28;20130;-69
2022/08/05 08:33:51;;;;;;;6.20;2.38;;;;;;;;;;5093103;28;20304;-70
2022/08/05 08:36:18;;;;;;;7.07;2.38;;;;;;;;;;5094689;28;20124;-70
2022/08/05 08:38:44;;;;;;;4.78;2.58;;;;;;;;;;5096698;28;20043;-69
2022/08/05 08:41:10;;;;;;;3.10;1.92;;;;;;;;;;5095542;28;20104;-69
2022/08/05 08:43:37;;;;;;;4.93;2.22;;;;;;;;;;5096934;28;20056;-69
2022/08/05 08:46:04;;;;;;;2.55;2.33;;;;;;;;;;5096283;28;20036;-69
2022/08/05 08:48:31;;;;;;;2.58;1.92;;;;;;;;;;5096600;28;20575;-69
2022/08/05 08:50:57;;;;;;;4.97;2.58;;;;;;;;;;5096455;28;20039;-69
2022/08/05 08:53:24;;;;;;;5.15;2.58;;;;;;;;;;5096719;28;20051;-70
2022/08/05 08:55:50;;;;;;;3.05;2.00;;;;;;;;;;5097286;28;20048;-69
2022/08/05 08:58:16;;;;;;;2.55;2.30;;;;;;;;;;5095964;28;20048;-69
2022/08/05 09:00:43;;;;;;;3.75;2.70;;;;;;;;;;5098714;28;20039;-69
2022/08/05 09:03:10;;;;;;;4.97;2.50;;;;;;;;;;5099315;28;20044;-69
2022/08/05 09:05:36;;;;;;;6.05;2.58;;;;;;;;;;5095396;28;20040;-69
2022/08/05 09:08:02;;;;;;;4.88;2.53;;;;;;;;;;5102109;28;20040;-69
2022/08/05 09:10:29;;;;;;;4.72;2.78;;;;;;;;;;5101742;28;20122;-69
2022/08/05 09:12:55;;;;;;;3.40;2.50;;;;;;;;;;5100918;28;20044;-69
2022/08/05 09:15:22;;;;;;;3.95;2.53;;;;;;;;;;5100702;28;20032;-69
2022/08/05 09:17:48;;;;;;;17.15;3.95;;;;;;;;;;5096127;28;20043;-69
2022/08/05 09:20:14;;;;;;;6.53;2.50;;;;;;;;;;5106481;28;20039;-69
2022/08/05 09:22:59;;;;;;;5.68;2.60;;;;;;;;;;5093230;28;20097;-69
2022/08/05 09:25:25;;;;;;;5.88;2.72;;;;;;;;;;5096451;28;20054;-69
2022/08/05 09:27:51;;;;;;;3.60;2.95;;;;;;;;;;5095176;28;20113;-69
2022/08/05 09:30:17;;;;;;;7.75;3.38;;;;;;;;;;5095864;28;20044;-69
2022/08/05 09:32:43;;;;;;;2.47;2.10;;;;;;;;;;5095232;28;20040;-69
2022/08/05 09:35:11;;;;;;;8.77;3.10;;;;;;;;;;5096009;28;20044;-69
2022/08/05 09:37:39;;;;;;;4.53;2.85;;;;;;;;;;5095480;28;20036;-69
2022/08/05 09:40:06;;;;;;;4.78;2.75;;;;;;;;;;5094848;28;20039;-70
2022/08/05 09:42:41;;;;;;;3.78;2.65;;;;;;;;;;5095032;28;20058;-70
2022/08/05 09:45:07;;;;;;;3.70;2.55;;;;;;;;;;5096365;28;20040;-69
2022/08/05 09:47:34;;;;;;;6.88;5.15;;;;;;;;;;5097479;28;20054;-70
2022/08/05 09:50:00;;;;;;;5.75;2.67;;;;;;;;;;5092173;28;20032;-69
2022/08/05 09:52:31;;;;;;;6.38;2.42;;;;;;;;;;5107334;28;20098;-69
2022/08/05 09:55:01;;;;;;;4.30;2.50;;;;;;;;;;5095041;28;20097;-69
2022/08/05 09:57:31;;;;;;;6.30;2.80;;;;;;;;;;5093664;28;20563;-70
2022/08/05 10:00:02;;;;;;;10.18;2.70;;;;;;;;;;5086079;28;20523;-70
2022/08/05 10:02:33;;;;;;;3.75;2.63;;;;;;;;;;5097150;28;20059;-70
2022/08/05 10:05:03;;;;;;;4.20;2.85;;;;;;;;;;5094739;28;20040;-69
2022/08/05 10:07:42;;;;;;;3.65;2.65;;;;;;;;;;5101690;28;20044;-69
2022/08/05 10:10:09;;;;;;;5.43;2.50;;;;;;;;;;5093034;28;20031;-69
2022/08/05 10:13:02;;;;;;;5.40;2.60;;;;;;;;;;5104572;28;20040;-67
2022/08/05 10:15:29;;;;;;;3.80;2.45;;;;;;;;;;5090706;28;20513;-68
2022/08/05 10:18:04;;;;;;;3.30;2.42;;;;;;;;;;5091657;28;20557;-68
2022/08/05 10:20:31;;;;;;;4.40;2.47;;;;;;;;;;5097437;28;20161;-68
2022/08/05 10:22:57;;;;;;;4.90;2.83;;;;;;;;;;5098772;28;20048;-68
2022/08/05 10:25:23;;;;;;;5.82;2.50;;;;;;;;;;5099132;28;20066;-68
2022/08/05 10:27:51;;;;;;;4.15;2.70;;;;;;;;;;5094908;28;20069;-68
2022/08/05 10:30:18;;;;;;;3.95;2.40;;;;;;;;;;5099839;28;20038;-68
2022/08/05 10:32:45;;;;;;;4.63;2.95;;;;;;;;;;5105499;28;20153;-68
2022/08/05 10:35:11;;;;;;;4.85;2.92;;;;;;;;;;5096337;28;20121;-68
2022/08/05 10:37:38;;;;;;;6.30;2.97;;;;;;;;;;5095089;28;20078;-68
2022/08/05 10:40:07;;;;;;;3.65;2.70;;;;;;;;;;5094640;28;20040;-69
2022/08/05 10:42:37;;;;;;;5.00;2.42;;;;;;;;;;5094137;28;20128;-68
2022/08/05 10:45:04;;;;;;;5.63;2.80;;;;;;;;;;5083594;28;20043;-69
2022/08/05 10:47:32;;;;;;;4.47;2.90;;;;;;;;;;5097370;28;20193;-69
2022/08/05 10:50:04;;;;;;;6.90;3.22;;;;;;;;;;5094437;28;20085;-68
2022/08/05 10:52:39;;;;;;;3.10;2.80;;;;;;;;;;5104421;28;20071;-68
2022/08/05 10:55:06;;;;;;;5.78;3.05;;;;;;;;;;5091445;28;20468;-68
2022/08/05 10:57:33;;;;;;;4.65;3.00;;;;;;;;;;5098057;28;20036;-68
2022/08/05 11:00:15;;;;;;;7.85;2.88;;;;;;;;;;5093730;28;20038;-68
2022/08/05 11:02:59;;;;;;;6.28;2.92;;;;;;;;;;5093333;28;20425;-68
2022/08/05 11:05:26;;;;;;;3.97;2.75;;;;;;;;;;5094506;28;20047;-68
2022/08/05 11:07:56;;;;;;;5.85;2.42;;;;;;;;;;5095635;28;20028;-68
2022/08/05 11:10:23;;;;;;;8.32;3.08;;;;;;;;;;5093881;28;20036;-68
2022/08/05 11:12:49;;;;;;;9.35;3.10;;;;;;;;;;5093972;28;20040;-68
2022/08/05 11:15:15;;;;;;;4.38;2.80;;;;;;;;;;5093359;28;20117;-68
2022/08/05 11:17:47;;;;;;;6.38;3.33;;;;;;;;;;5093052;28;20055;-68
2022/08/05 11:20:32;;;;;;;5.55;2.92;;;;;;;;;;5103160;28;20039;-68
2022/08/05 11:22:59;;;;;;;4.75;3.05;;;;;;;;;;5093636;28;20044;-68
2022/08/05 11:25:29;;;;;;;5.13;2.80;;;;;;;;;;5093461;28;20085;-68
2022/08/05 11:28:15;;;;;;;3.25;2.90;;;;;;;;;;5094190;28;20032;-68
2022/08/05 11:30:57;;;;;;;6.13;2.72;;;;;;;;;;5082427;28;20040;-68
2022/08/05 11:33:26;;;;;;;7.95;2.90;;;;;;;;;;5092988;28;20411;-68
2022/08/05 11:35:59;;;;;;;9.00;2.88;;;;;;;;;;5093950;28;20110;-68
2022/08/05 11:38:38;;;;;;;2.55;2.35;;;;;;;;;;5092400;28;20166;-71
2022/08/05 11:41:09;;;;;;;5.95;2.80;;;;;;;;;;5093264;28;20131;-73
2022/08/05 11:43:36;;;;;;;2.95;2.72;;;;;;;;;;5087460;28;20052;-73
2022/08/05 11:46:02;;;;;;;6.63;2.70;;;;;;;;;;5092816;28;20116;-72
2022/08/05 11:48:29;;;;;;;3.00;2.28;;;;;;;;;;5093207;28;20163;-75
2022/08/05 11:50:55;;;;;;;7.13;2.65;;;;;;;;;;5093526;28;20054;-75
2022/08/05 11:53:22;;;;;;;8.05;3.13;;;;;;;;;;5100482;28;20042;-76
2022/08/05 11:55:55;;;;;;;8.60;2.78;;;;;;;;;;5103475;28;20073;-68
2022/08/05 11:58:33;;;;;;;3.28;2.40;;;;;;;;;;5091772;28;20490;-68
2022/08/05 12:01:03;;;;;;;6.90;2.60;;;;;;;;;;5092369;28;20040;-68
2022/08/05 12:03:30;;;;;;;6.05;3.25;;;;;;;;;;5093949;28;20097;-68
2022/08/05 12:06:03;;;;;;;5.47;2.63;;;;;;;;;;5092670;28;20044;-68
2022/08/05 12:08:29;;;;;;;6.65;3.00;;;;;;;;;;5093161;28;20040;-67
2022/08/05 12:10:58;;;;;;;4.57;2.78;;;;;;;;;;5096421;28;20039;-67
2022/08/05 12:13:24;;;;;;;3.38;2.28;;;;;;;;;;5095518;28;20032;-69
2022/08/05 12:15:50;;;;;;;5.05;2.53;;;;;;;;;;5096986;28;20050;-69
2022/08/05 12:18:17;;;;;;;5.13;3.30;;;;;;;;;;5098008;28;20039;-69
2022/08/05 12:20:43;;;;;;;2.92;2.60;;;;;;;;;;5097250;28;20040;-70
2022/08/05 12:23:10;;;;;;;5.22;2.38;;;;;;;;;;5100189;28;20039;-68
2022/08/05 12:25:52;;;;;;;4.97;2.90;;;;;;;;;;5100108;28;20055;-71
2022/08/05 12:28:34;;;;;;;13.80;2.80;;;;;;;;;;5096002;28;20058;-68
2022/08/05 12:31:00;;;;;;;4.68;2.63;;;;;;;;;;5095654;28;20040;-66
2022/08/05 12:33:26;;;;;;;4.05;2.83;;;;;;;;;;5097245;28;20082;-67
2022/08/05 12:35:53;;;;;;;6.13;3.05;;;;;;;;;;5096384;28;20553;-68
2022/08/05 12:38:20;;;;;;;3.70;2.67;;;;;;;;;;5096580;28;20411;-70
2022/08/05 12:40:46;;;;;;;5.20;2.60;;;;;;;;;;5096566;28;20050;-69
2022/08/05 12:43:16;;;;;;;9.27;2.88;;;;;;;;;;5096411;28;20135;-73
2022/08/05 12:45:52;;;;;;;4.40;2.57;;;;;;;;;;5099552;28;20106;-72
2022/08/05 12:48:18;;;;;;;3.75;2.60;;;;;;;;;;5097707;28;20055;-72
2022/08/05 12:51:04;;;;;;;6.80;2.75;;;;;;;;;;5101299;28;20085;-72
2022/08/05 12:53:30;;;;;;;4.40;2.70;;;;;;;;;;5096840;28;20098;-72
2022/08/05 12:55:56;;;;;;;4.50;2.63;;;;;;;;;;5101502;28;20478;-73
2022/08/05 12:58:23;;;;;;;4.53;2.38;;;;;;;;;;5105721;28;20500;-70
2022/08/05 13:00:50;;;;;;;6.05;3.08;;;;;;;;;;5093940;28;20074;-70
2022/08/05 13:03:16;;;;;;;4.35;2.63;;;;;;;;;;5094995;28;20075;-70
2022/08/05 13:05:42;;;;;;;8.55;3.00;;;;;;;;;;5103715;28;20044;-70
2022/08/05 13:08:08;;;;;;;7.75;3.33;;;;;;;;;;5098638;28;20054;-69
2022/08/05 13:10:42;;;;;;;3.40;2.35;;;;;;;;;;5095689;28;20040;-70
2022/08/05 13:13:09;;;;;;;2.67;2.28;;;;;;;;;;5098247;28;20106;-71
2022/08/05 13:15:35;;;;;;;4.93;2.90;;;;;;;;;;5097385;28;20046;-70
2022/08/05 13:18:02;;;;;;;4.60;2.85;;;;;;;;;;5097172;28;20038;-71
2022/08/05 13:20:34;;;;;;;4.80;2.60;;;;;;;;;;5096865;28;20035;-70
2022/08/05 13:23:01;;;;;;;6.38;2.90;;;;;;;;;;5096139;28;20043;-70
2022/08/05 13:25:28;;;;;;;5.22;2.45;;;;;;;;;;5096835;28;20042;-70
2022/08/05 13:27:56;;;;;;;4.32;2.50;;;;;;;;;;5096259;28;20032;-70
2022/08/05 13:30:24;;;;;;;7.18;3.03;;;;;;;;;;5096224;28;20478;-70
2022/08/05 13:32:51;;;;;;;3.97;2.75;;;;;;;;;;5097215;28;20084;-71
2022/08/05 13:35:19;;;;;;;4.85;2.40;;;;;;;;;;5103175;28;20047;-70
2022/08/05 13:37:46;;;;;;;3.20;2.35;;;;;;;;;;5106674;28;20038;-70
2022/08/05 13:40:12;;;;;;;5.78;2.60;;;;;;;;;;5103011;28;20042;-70
2022/08/05 13:42:38;;;;;;;2.70;2.10;;;;;;;;;;5115055;28;20579;-70
2022/08/05 13:45:06;;;;;;;4.20;2.30;;;;;;;;;;5106693;28;20498;-70
2022/08/05 13:47:36;;;;;;;4.40;2.30;;;;;;;;;;5106467;28;20038;-70
2022/08/05 13:50:03;;;;;;;4.00;2.75;;;;;;;;;;5102745;28;20035;-70
2022/08/05 13:52:30;;;;;;;5.07;2.78;;;;;;;;;;5103638;28;20039;-70
2022/08/05 13:54:57;;;;;;;5.60;2.70;;;;;;;;;;5108332;28;20038;-70
2022/08/05 13:57:23;;;;;;;9.15;2.63;;;;;;;;;;5111183;28;20040;-70
2022/08/05 13:59:49;;;;;;;5.80;2.60;;;;;;;;;;5105995;28;20406;-70
2022/08/05 14:02:16;;;;;;;4.30;2.50;;;;;;;;;;5107604;28;20114;-70
2022/08/05 14:07:30;;;;;;;5.13;2.50;;;;;;;;;;5099761;28;20078;-70
2022/08/05 14:09:56;;;;;;;5.72;2.20;;;;;;;;;;5114779;28;20035;-70
2022/08/05 14:12:23;;;;;;;7.00;3.17;;;;;;;;;;5105449;28;20070;-70
2022/08/05 14:14:49;;;;;;;4.75;2.33;;;;;;;;;;5104322;28;20032;-70
2022/08/05 14:17:15;;;;;;;5.15;2.33;;;;;;;;;;5100303;28;20040;-69
2022/08/05 14:19:44;;;;;;;5.68;2.47;;;;;;;;;;5100208;28;20066;-71
2022/08/05 14:22:11;;;;;;;3.45;2.28;;;;;;;;;;5093721;28;20047;-70
2022/08/05 14:24:38;;;;;;;4.43;2.60;;;;;;;;;;5103740;28;20039;-71
2022/08/05 14:27:05;;;;;;;4.07;2.03;;;;;;;;;;5093608;28;20044;-71
2022/08/05 14:29:31;;;;;;;6.38;2.70;;;;;;;;;;5094261;28;20410;-72
2022/08/05 14:31:57;;;;;;;6.72;2.50;;;;;;;;;;5095874;28;20051;-69
2022/08/05 14:34:23;;;;;;;5.30;2.28;;;;;;;;;;5097139;28;20498;-70
2022/08/05 14:36:50;;;;;;;6.57;2.90;;;;;;;;;;5093534;28;20123;-70
2022/08/05 14:39:16;;;;;;;3.22;2.72;;;;;;;;;;5094610;28;20032;-74
2022/08/05 14:41:42;;;;;;;4.50;2.42;;;;;;;;;;5096304;28;20056;-70
2022/08/05 14:44:08;;;;;;;6.50;2.95;;;;;;;;;;5094377;28;20571;-69
2022/08/05 14:46:35;;;;;;;4.30;2.20;;;;;;;;;;5093922;28;20490;-69
2022/08/05 14:49:02;;;;;;;5.22;2.67;;;;;;;;;;5094529;28;20043;-69
2022/08/05 14:51:28;;;;;;;5.88;2.80;;;;;;;;;;5094471;28;20043;-69
2022/08/05 14:53:55;;;;;;;5.28;2.20;;;;;;;;;;5095429;28;20044;-69
2022/08/05 14:56:21;;;;;;;6.03;2.70;;;;;;;;;;5094046;28;20055;-69
2022/08/05 14:58:47;;;;;;;7.00;2.78;;;;;;;;;;5093728;28;20561;-69
2022/08/05 15:01:13;;;;;;;5.63;2.85;;;;;;;;;;5093453;28;20055;-69
2022/08/05 15:03:40;;;;;;;5.90;2.78;;;;;;;;;;5093330;28;20181;-69
2022/08/05 15:06:06;;;;;;;6.43;2.70;;;;;;;;;;5093579;28;20085;-69
2022/08/05 15:08:32;;;;;;;6.28;2.70;;;;;;;;;;5088558;28;20036;-69
2022/08/05 15:10:58;;;;;;;8.30;3.60;;;;;;;;;;5071262;28;20083;-68
2022/08/05 15:13:25;;;;;;;6.70;3.10;;;;;;;;;;5074538;28;20083;-68
2022/08/05 15:15:51;;;;;;;6.78;2.50;;;;;;;;;;5073803;28;20123;-68
2022/08/05 15:18:17;;;;;;;5.82;2.72;;;;;;;;;;5074161;28;20060;-68
2022/08/05 15:20:43;;;;;;;6.07;2.47;;;;;;;;;;5074421;28;20090;-68
2022/08/05 15:23:10;;;;;;;5.32;2.67;;;;;;;;;;5073734;28;20040;-68